»·PEaware :: UPS4071 KBFI-CYVR

UPS4071 :: KBFI-CYVR

FLIGHT INFORMATION

Flight Status: Arrived
Operator:
United Parcel Service
More flights by this operator :: More flights under this callsign
Pilot: David J. (24489)
Aircraft: BOEING 757-200
(B752)
More flights by this aircraft type
Origin: KBFI Boeing Field/King Co Intl
United States
Destination: CYVR Vancouver Intl
Canada
More flights between these airports :: More routes between these airports
Route: +NRVNA1 NRVNA PAE GRIZZ6
File this flight plan on PilotEdge
Remarks: RMK / SIMBRIEF
Altitude:
(Current/Filed)
16,000ft
Speed:
(Current/Filed)
347kts
Departed: 29-Nov-20 04:52 PM
Arrived: 29-Nov-20 05:32 PM
Distance/Time
Traveled:
106nm/0:40
Distance/Time
To Go:
Arrived

Flight Plot

Page will automatically refresh every two minutes.

Flight plan parsing failed; only flown route is shown


Map Options




Map Legend


Flown Route
Filed Route
Departure Airport
Arrival Airport
Navaid (VOR, NDB)
Fix

Horizontal Profiles

Position Reports

Time Latitude Longitude Heading Altitude Ground
Speed
29-Nov-20 16:32 47.535696 -122.303199 50 28ft 0kts
29-Nov-20 16:33 47.535696 -122.303199 50 28ft 0kts
29-Nov-20 16:34 47.535696 -122.303199 50 28ft 0kts
29-Nov-20 16:35 47.535696 -122.303199 50 28ft 0kts
29-Nov-20 16:36 47.535696 -122.303199 50 28ft 0kts
29-Nov-20 16:37 47.535696 -122.303199 50 28ft 0kts
29-Nov-20 16:38 47.535696 -122.303199 50 28ft 0kts
29-Nov-20 16:39 47.535696 -122.303199 50 28ft 0kts
29-Nov-20 16:40 47.535696 -122.303199 50 28ft 0kts
29-Nov-20 16:41 47.535691 -122.303208 50 28ft 0kts
29-Nov-20 16:42 47.535198 -122.303812 347 28ft 2kts
29-Nov-20 16:43 47.534905 -122.303610 330 28ft 0kts
29-Nov-20 16:44 47.534905 -122.303610 330 28ft 0kts
29-Nov-20 16:44 47.534905 -122.303610 330 28ft 0kts
29-Nov-20 16:46 47.534905 -122.303610 330 28ft 0kts
29-Nov-20 16:47 47.534905 -122.303610 330 28ft 0kts
29-Nov-20 16:47 47.536519 -122.305228 326 28ft 5kts
29-Nov-20 16:48 47.539715 -122.307994 332 28ft 6kts
29-Nov-20 16:49 47.540470 -122.308643 323 28ft 0kts
29-Nov-20 16:51 47.539987 -122.310968 155 28ft 18kts
29-Nov-20 16:51 47.521185 -122.295322 150 736ft 146kts
29-Nov-20 16:52 47.469053 -122.251435 150 2112ft 319kts
29-Nov-20 16:53 47.423827 -122.161899 83 6519ft 273kts
29-Nov-20 16:54 47.486241 -122.107450 346 10278ft 305kts
29-Nov-20 16:55 47.575866 -122.140918 340 13449ft 359kts
29-Nov-20 16:56 47.675970 -122.180638 340 14987ft 376kts
29-Nov-20 16:57 47.778647 -122.221419 339 16002ft 386kts
29-Nov-20 16:58 47.882238 -122.262693 339 15983ft 385kts
29-Nov-20 16:59 47.987178 -122.298187 344 15980ft 388kts
29-Nov-20 17:00 48.093444 -122.328731 344 15981ft 388kts
29-Nov-20 17:01 48.199455 -122.359289 344 15981ft 388kts
29-Nov-20 17:02 48.304844 -122.389805 344 15499ft 384kts
29-Nov-20 17:03 48.409120 -122.420143 344 14543ft 378kts
29-Nov-20 17:04 48.511340 -122.450113 344 13642ft 371kts
29-Nov-20 17:05 48.612125 -122.479898 343 12778ft 365kts
29-Nov-20 17:06 48.708885 -122.513545 328 11086ft 335kts
29-Nov-20 17:07 48.770750 -122.611829 305 10207ft 318kts
29-Nov-20 17:08 48.827852 -122.710859 306 9828ft 283kts
29-Nov-20 17:09 48.878473 -122.799419 305 9941ft 274kts
29-Nov-20 17:10 48.928892 -122.887685 305 9977ft 276kts
29-Nov-20 17:11 48.979265 -122.976177 305 9983ft 277kts
29-Nov-20 17:12 49.025681 -123.057976 305 9989ft 276kts
29-Nov-20 17:13 49.075365 -123.147592 297 9987ft 274kts
29-Nov-20 17:14 49.095779 -123.256151 278 9996ft 265kts
29-Nov-20 17:15 49.111783 -123.352952 279 9995ft 265kts
29-Nov-20 17:16 49.129886 -123.459699 281 9372ft 244kts
29-Nov-20 17:17 49.148697 -123.559209 281 7905ft 239kts
29-Nov-20 17:18 49.165415 -123.654973 281 5796ft 219kts
29-Nov-20 17:19 49.179212 -123.743722 281 3803ft 211kts
29-Nov-20 17:20 49.194483 -123.829006 312 2945ft 209kts
29-Nov-20 17:21 49.237536 -123.805939 70 3019ft 202kts
29-Nov-20 17:22 49.255669 -123.724693 76 2953ft 201kts
29-Nov-20 17:23 49.254263 -123.639478 98 2963ft 201kts
29-Nov-20 17:24 49.245306 -123.554828 99 2966ft 201kts
29-Nov-20 17:25 49.235792 -123.470533 99 2969ft 201kts
29-Nov-20 17:26 49.226215 -123.386122 99 2402ft 200kts
29-Nov-20 17:27 49.217890 -123.313183 100 1394ft 136kts
29-Nov-20 17:28 49.211528 -123.257465 99 686ft 129kts
29-Nov-20 17:29 49.205333 -123.202943 99 94ft 128kts
29-Nov-20 17:30 49.201828 -123.171305 98 24ft 47kts
29-Nov-20 17:31 49.200912 -123.162058 74 24ft 5kts
29-Nov-20 17:32 49.202865 -123.161054 10 24ft 0kts
29-Nov-20 17:33 49.203329 -123.159965 21 24ft 4kts
29-Nov-20 17:34 49.203447 -123.159919 13 24ft 0kts
29-Nov-20 17:35 49.203447 -123.159919 13 24ft 0kts
29-Nov-20 17:36 49.203447 -123.159919 13 24ft 0kts
29-Nov-20 17:37 49.203447 -123.159919 13 24ft 0kts
29-Nov-20 17:38 49.203447 -123.159919 13 24ft 0kts
29-Nov-20 17:39 49.203447 -123.159919 13 24ft 0kts
29-Nov-20 17:40 49.203447 -123.159919 13 24ft 0kts
29-Nov-20 17:41 49.203447 -123.159919 13 24ft 0kts
29-Nov-20 17:42 49.203447 -123.159919 13 24ft 0kts
29-Nov-20 17:43 49.203447 -123.159919 13 24ft 0kts
29-Nov-20 17:44 49.203447 -123.159919 13 24ft 0kts
29-Nov-20 17:45 49.203447 -123.159919 13 24ft 0kts

Navigation Log

Ident Type
Flight plan parsing failed, navigation log unavailable